Terminal Aerodrome Forecast
Issued by NWS Brownsville, TX

Home | Current Version | Previous Version | Text Only | Print | Product List | Glossary On
Versions: 1 2 3 4 5 6 7 8 9 10 11 12 13 14 15 16
000
FTUS44 KBRO 291300 AAA
TAFMFE
TAF AMD
KMFE 291342Z 2914/3012 00000KT P6SM VCSH FEW080 BKN250
     FM291500 15007KT P6SM VCSH OVC040
      TEMPO 2916/2919 5SM -TSRA OVC030CB
     FM291900 16011KT P6SM VCSH OVC025
     FM292100 13011KT P6SM VCSH OVC030
     FM300300 13006KT P6SM VCSH OVC040=

USA.gov is the U.S. government's official web portal to all federal, state and local government web resources and services.